createdAt,value
2022-11-01T00:00:51.398Z,101196.41
2022-11-01T00:08:26.342Z,101190.19
2022-11-01T00:15:59.812Z,101176.78
2022-11-01T00:23:34.949Z,101189.28
2022-11-01T00:31:11.764Z,101196.38
2022-11-01T00:38:50.674Z,101196.38
2022-11-01T00:46:24.415Z,101161.47
2022-11-01T00:53:59.455Z,101158.69
2022-11-01T01:01:33.289Z,101137.13
2022-11-01T01:09:08.386Z,101106.75
2022-11-01T01:16:43.068Z,101105.91
2022-11-01T01:24:18.136Z,101124.56
2022-11-01T01:31:51.595Z,101154.00
2022-11-01T01:39:26.853Z,101147.75
2022-11-01T01:47:00.713Z,101126.09
2022-11-01T01:54:36.222Z,101102.13
2022-11-01T02:02:10.259Z,101094.09
2022-11-01T02:09:45.924Z,101088.81
2022-11-01T02:17:28.250Z,101076.34
2022-11-01T02:25:11.365Z,101058.47
2022-11-01T02:33:16.002Z,101042.34
2022-11-01T02:41:00.316Z,101036.03
2022-11-01T02:48:35.313Z,101024.38
2022-11-01T02:56:10.912Z,101039.50
2022-11-01T03:03:48.628Z,101055.50
2022-11-01T03:11:24.945Z,101043.78
2022-11-01T03:19:27.626Z,101050.03
2022-11-01T03:27:06.357Z,101050.88
2022-11-01T03:34:42.564Z,101049.94
2022-11-01T03:42:19.775Z,101047.16
2022-11-01T03:50:13.476Z,101033.66
2022-11-01T03:57:47.930Z,101029.06
2022-11-01T04:05:25.029Z,101027.22
2022-11-01T04:12:59.660Z,101026.34
2022-11-01T04:20:35.645Z,101047.72
2022-11-01T04:28:09.264Z,101035.16
2022-11-01T04:35:44.467Z,101029.91
2022-11-01T04:43:18.719Z,101030.78
2022-11-01T04:50:53.892Z,101032.63
2022-11-01T04:58:27.521Z,101020.06
2022-11-01T05:06:02.984Z,101019.16
2022-11-01T05:13:37.515Z,100991.38
2022-11-01T05:21:12.538Z,100997.63
2022-11-01T05:28:46.048Z,100995.78
2022-11-01T05:36:21.352Z,100993.06
2022-11-01T05:43:55.033Z,101011.81
2022-11-01T05:51:30.002Z,101007.25
2022-11-01T05:59:03.563Z,101012.69
2022-11-01T06:06:38.575Z,101009.09
2022-11-01T06:14:12.613Z,101012.69
2022-11-01T06:21:47.833Z,100986.75
2022-11-01T06:29:21.788Z,101001.94
2022-11-01T06:36:56.737Z,101010.94
2022-11-01T06:44:30.409Z,101005.56
2022-11-01T06:52:05.888Z,101009.16
2022-11-01T06:59:39.562Z,101017.19
2022-11-01T07:07:14.565Z,101025.28
2022-11-01T07:14:48.075Z,101028.84
2022-11-01T07:22:23.074Z,101039.56
2022-11-01T07:29:57.117Z,101061.94
2022-11-01T07:37:32.547Z,101064.66
2022-11-01T07:45:12.026Z,101082.53
2022-11-01T07:52:47.978Z,101080.84
2022-11-01T08:00:21.882Z,101099.75
2022-11-01T08:07:57.283Z,101092.59
2022-11-01T08:15:30.968Z,101094.59
2022-11-01T08:23:06.646Z,101088.44
2022-11-01T08:30:42.484Z,101113.66
2022-11-01T08:38:17.449Z,101088.00
2022-11-01T08:45:50.913Z,101093.56
2022-11-01T08:53:25.909Z,101097.19
2022-11-01T09:00:59.685Z,101095.50
2022-11-01T09:08:34.820Z,101095.56
2022-11-01T09:16:09.650Z,101077.78
2022-11-01T09:23:46.069Z,101072.56
2022-11-01T09:31:21.539Z,101087.00
2022-11-01T09:38:57.597Z,101119.31
2022-11-01T09:46:35.436Z,101118.47
2022-11-01T09:54:12.037Z,101132.81
2022-11-01T10:01:57.864Z,101126.63
2022-11-01T10:09:43.289Z,101120.38
2022-11-01T10:17:17.679Z,101109.66
2022-11-01T10:24:56.831Z,101120.56
2022-11-01T10:32:36.131Z,101144.81
2022-11-01T10:40:17.186Z,101163.69
2022-11-01T10:47:58.584Z,101156.56
2022-11-01T10:55:40.105Z,101141.38
2022-11-01T11:03:20.425Z,101138.78
2022-11-01T11:10:57.222Z,101149.63
2022-11-01T11:18:35.242Z,101160.47
2022-11-01T11:26:16.295Z,101178.44
2022-11-01T11:33:52.870Z,101167.66
2022-11-01T11:41:32.613Z,101172.16
2022-11-01T11:49:07.471Z,101167.66
2022-11-01T11:56:42.441Z,101166.75
2022-11-01T12:04:19.173Z,101173.97
2022-11-01T12:11:54.193Z,101178.44
2022-11-01T12:19:28.863Z,101180.22
2022-11-01T12:27:10.798Z,101176.66
2022-11-01T12:34:48.789Z,101174.84
2022-11-01T12:42:30.261Z,101192.81
2022-11-01T12:50:10.851Z,101194.63
2022-11-01T12:57:45.933Z,101189.22
2022-11-01T13:05:23.217Z,101184.72
2022-11-01T13:13:11.660Z,101187.38
2022-11-01T13:20:52.895Z,101190.06
2022-11-01T13:28:44.694Z,101198.19
2022-11-01T13:36:28.709Z,101207.19
2022-11-01T13:44:11.124Z,101199.09
2022-11-01T13:51:49.655Z,101199.09
2022-11-01T13:59:45.043Z,101208.97
2022-11-01T14:07:19.084Z,101209.88
2022-11-01T14:14:54.262Z,101215.28
2022-11-01T14:22:31.150Z,101227.84
2022-11-01T14:30:15.463Z,101221.59
2022-11-01T14:37:53.210Z,101234.16
2022-11-01T14:45:35.135Z,101228.75
2022-11-01T14:53:17.627Z,101239.56
2022-11-01T15:00:55.445Z,101250.31
2022-11-01T15:08:33.896Z,101244.91
2022-11-01T15:16:15.903Z,101256.63
2022-11-01T15:23:51.611Z,101254.81
2022-11-01T15:31:27.144Z,101256.59
2022-11-01T15:39:03.796Z,101270.94
2022-11-01T15:46:41.782Z,101280.78
2022-11-01T15:54:21.914Z,101278.97
2022-11-01T16:02:01.239Z,101280.72
2022-11-01T16:09:40.282Z,101286.00
2022-11-01T16:17:27.098Z,101301.16
2022-11-01T16:25:18.300Z,101301.97
2022-11-01T16:32:53.370Z,101309.97
2022-11-01T16:40:30.019Z,101317.00
2022-11-01T16:48:05.615Z,101326.72
2022-11-01T16:55:40.932Z,101336.44
2022-11-01T17:03:16.182Z,101339.03
2022-11-01T17:10:50.694Z,101349.66
2022-11-01T17:18:29.446Z,101354.88
2022-11-01T17:26:04.863Z,101370.84
2022-11-01T17:33:40.488Z,101375.09
2022-11-01T17:41:19.655Z,101384.81
2022-11-01T17:48:54.708Z,101397.22
2022-11-01T17:56:28.241Z,101397.06
2022-11-01T18:04:03.309Z,101392.44
2022-11-01T18:11:39.674Z,101404.81
2022-11-01T18:19:37.841Z,101408.19
2022-11-01T18:27:13.476Z,101415.16
2022-11-01T18:34:53.441Z,101417.66
2022-11-01T18:42:27.265Z,101421.91
2022-11-01T18:50:10.626Z,101416.31
2022-11-01T18:57:46.418Z,101433.06
2022-11-01T19:05:21.466Z,101440.84
2022-11-01T19:12:56.111Z,101437.09
2022-11-01T19:20:33.621Z,101435.97
2022-11-01T19:28:16.546Z,101435.75
2022-11-01T19:35:57.327Z,101451.50
2022-11-01T19:43:31.284Z,101460.22
2022-11-01T19:51:15.973Z,101461.75
2022-11-01T19:58:52.498Z,101457.03
2022-11-01T20:06:35.306Z,101470.19
2022-11-01T20:14:09.675Z,101479.84
2022-11-01T20:21:44.712Z,101479.66
2022-11-01T20:29:18.393Z,101478.53
2022-11-01T20:37:14.910Z,101487.16
2022-11-01T20:44:46.980Z,101485.09
2022-11-01T21:00:18.385Z,101493.56
2022-11-01T21:07:59.403Z,101495.91
2022-11-01T21:15:36.015Z,101486.72
2022-11-01T21:23:23.695Z,101491.03
2022-11-01T21:31:03.034Z,101491.69
2022-11-01T21:38:42.242Z,101474.53
2022-11-01T21:46:18.325Z,101483.25
2022-11-01T21:53:53.378Z,101488.38
2022-11-01T22:01:27.156Z,101489.03
2022-11-01T22:09:02.211Z,101480.75
2022-11-01T22:16:36.052Z,101477.81
2022-11-01T22:24:11.202Z,101485.66
2022-11-01T22:31:44.875Z,101490.81
2022-11-01T22:39:22.194Z,101493.94
2022-11-01T22:46:59.016Z,101495.41
2022-11-01T22:54:40.113Z,101487.22
2022-11-01T23:02:27.705Z,101489.78
2022-11-01T23:10:07.156Z,101496.72
2022-11-01T23:17:40.867Z,101492.06
2022-11-01T23:25:16.072Z,101488.19
2022-11-01T23:32:49.746Z,101485.97
2022-11-01T23:40:33.055Z,101492.78
2022-11-01T23:48:09.742Z,101491.69
2022-11-01T23:55:48.128Z,101502.22
